createdAt,value
2018-02-22T00:00:40.191Z,3.21
2018-02-22T00:01:50.240Z,3.24
2018-02-22T00:03:00.292Z,3.24
2018-02-22T00:04:10.350Z,3.34
2018-02-22T00:05:20.408Z,3.32
2018-02-22T00:06:29.942Z,3.27
2018-02-22T00:07:39.761Z,3.26
2018-02-22T00:08:49.563Z,3.17
2018-02-22T00:09:59.622Z,3.16
2018-02-22T00:11:09.158Z,3.14
2018-02-22T00:12:18.941Z,3.19
2018-02-22T00:13:28.522Z,3.14
2018-02-22T00:14:37.779Z,3.19
2018-02-22T00:15:47.565Z,3.23
2018-02-22T00:16:57.648Z,3.21
2018-02-22T00:18:07.713Z,3.24
2018-02-22T00:19:17.511Z,3.3
2018-02-22T00:20:27.572Z,3.2
2018-02-22T00:21:37.618Z,3.19
2018-02-22T00:22:46.890Z,3.13
2018-02-22T00:23:56.952Z,3.13
2018-02-22T00:25:06.741Z,3.19
2018-02-22T00:26:16.787Z,3.24
2018-02-22T00:27:26.845Z,3.24
2018-02-22T00:28:36.613Z,3.24
2018-02-22T00:29:46.395Z,3.2
2018-02-22T00:30:56.181Z,3.23
2018-02-22T00:32:06.288Z,3.24
2018-02-22T00:33:16.346Z,3.2
2018-02-22T00:34:26.392Z,3.3
2018-02-22T00:35:36.195Z,3.29
2018-02-22T00:36:46.250Z,3.34
2018-02-22T00:37:55.777Z,3.27
2018-02-22T00:39:05.364Z,3.32
2018-02-22T00:40:15.408Z,3.32
2018-02-22T00:41:25.468Z,3.34
2018-02-22T00:42:35.263Z,3.27
2018-02-22T00:43:45.066Z,3.26
2018-02-22T00:44:54.882Z,3.17
2018-02-22T00:46:04.674Z,3.17
2018-02-22T00:47:14.474Z,3.26
2018-02-22T00:48:24.544Z,3.17
2018-02-22T00:49:34.066Z,3.2
2018-02-22T00:50:44.178Z,3.19
2018-02-22T00:51:53.985Z,3.24
2018-02-22T00:53:04.074Z,3.23
2018-02-22T00:54:14.161Z,3.3
2018-02-22T00:55:23.954Z,3.32
2018-02-22T00:56:34.014Z,3.37
2018-02-22T00:57:43.827Z,3.27
2018-02-22T00:58:53.861Z,3.37
2018-02-22T01:00:03.653Z,3.34
2018-02-22T01:01:14.137Z,3.37
2018-02-22T01:02:24.235Z,3.34
2018-02-22T01:03:33.803Z,3.35
2018-02-22T01:04:43.603Z,3.34
2018-02-22T01:05:53.397Z,3.32
2018-02-22T01:07:03.456Z,3.34
2018-02-22T01:08:13.302Z,3.39
2018-02-22T01:09:23.349Z,3.39
2018-02-22T01:10:33.149Z,3.23
2018-02-22T01:11:43.218Z,3.34
2018-02-22T01:12:53.285Z,3.24
2018-02-22T01:14:03.401Z,3.3
2018-02-22T01:15:13.458Z,3.3
2018-02-22T01:16:23.255Z,3.35
2018-02-22T01:17:32.796Z,3.4
2018-02-22T01:18:42.585Z,3.37
2018-02-22T01:19:52.377Z,3.32
2018-02-22T01:21:02.171Z,3.32
2018-02-22T01:22:12.202Z,3.32
2018-02-22T01:23:21.459Z,3.37
2018-02-22T01:24:31.243Z,3.32
2018-02-22T01:25:41.293Z,3.34
2018-02-22T01:26:50.819Z,3.34
2018-02-22T01:28:00.598Z,3.34
2018-02-22T01:29:10.407Z,3.24
2018-02-22T01:30:20.470Z,3.37
2018-02-22T01:31:31.133Z,3.34
2018-02-22T01:32:40.664Z,3.39
2018-02-22T01:33:50.793Z,3.3
2018-02-22T01:35:00.312Z,3.34
2018-02-22T01:36:10.424Z,3.3
2018-02-22T01:37:20.217Z,3.34
2018-02-22T01:38:29.746Z,3.2
2018-02-22T01:39:39.541Z,3.35
2018-02-22T01:40:49.326Z,3.27
2018-02-22T01:41:59.402Z,3.26
2018-02-22T01:43:09.450Z,3.21
2018-02-22T01:44:19.243Z,3.23
2018-02-22T01:45:29.308Z,3.34
2018-02-22T01:46:39.121Z,3.34
2018-02-22T01:47:49.171Z,3.32
2018-02-22T01:48:58.744Z,3.27
2018-02-22T01:50:08.529Z,3.32
2018-02-22T01:51:18.322Z,3.27
2018-02-22T01:52:28.368Z,3.3
2018-02-22T01:53:38.172Z,3.34
2018-02-22T01:54:47.959Z,3.34
2018-02-22T01:55:57.774Z,3.32
2018-02-22T01:57:07.571Z,3.35
2018-02-22T01:58:17.653Z,3.34
2018-02-22T01:59:27.710Z,3.35
2018-02-22T02:00:37.510Z,3.42
2018-02-22T02:01:47.047Z,3.39
2018-02-22T02:02:57.130Z,3.39
2018-02-22T02:04:07.217Z,3.39
2018-02-22T02:05:17.263Z,3.34
2018-02-22T02:06:27.050Z,3.37
2018-02-22T02:07:36.856Z,3.37
2018-02-22T02:08:47.188Z,3.39
2018-02-22T02:09:56.970Z,3.34
2018-02-22T02:11:07.021Z,3.48
2018-02-22T02:12:16.827Z,3.42
2018-02-22T02:13:26.906Z,3.37
2018-02-22T02:14:36.957Z,3.34
2018-02-22T02:15:46.750Z,3.27
2018-02-22T02:16:56.815Z,3.29
2018-02-22T02:18:06.613Z,3.39
2018-02-22T02:19:16.442Z,3.35
2018-02-22T02:20:26.501Z,3.27
2018-02-22T02:21:36.550Z,3.34
2018-02-22T02:22:46.604Z,3.27
2018-02-22T02:23:56.651Z,3.4
2018-02-22T02:25:06.187Z,3.32
2018-02-22T02:26:16.249Z,3.39
2018-02-22T02:27:26.053Z,3.3
2018-02-22T02:28:35.845Z,3.32
2018-02-22T02:29:45.650Z,3.39
2018-02-22T02:30:55.448Z,3.3
2018-02-22T02:32:05.552Z,3.34
2018-02-22T02:33:15.088Z,3.29
2018-02-22T02:34:24.627Z,3.24
2018-02-22T02:35:33.910Z,3.19
2018-02-22T02:36:43.959Z,3.11
2018-02-22T02:37:53.774Z,3.08
2018-02-22T02:39:03.827Z,3.17
2018-02-22T02:40:13.901Z,3.13
2018-02-22T02:41:23.963Z,3.19
2018-02-22T02:42:33.490Z,3.11
2018-02-22T02:43:43.272Z,3.16
2018-02-22T02:44:52.797Z,3.19
2018-02-22T02:46:02.863Z,3.2
2018-02-22T02:47:12.666Z,3.17
2018-02-22T02:48:22.730Z,3.14
2018-02-22T02:49:32.805Z,3.19
2018-02-22T02:50:42.903Z,3.16
2018-02-22T02:51:52.967Z,3.19
2018-02-22T02:53:02.790Z,3.17
2018-02-22T02:54:12.863Z,3.16
2018-02-22T02:55:22.919Z,3.05
2018-02-22T02:56:32.725Z,3.11
2018-02-22T02:57:42.524Z,3.09
2018-02-22T02:58:52.573Z,3.13
2018-02-22T03:00:02.128Z,3.08
2018-02-22T03:01:12.378Z,3.09
2018-02-22T03:02:21.921Z,3.02
2018-02-22T03:03:31.991Z,3.02
2018-02-22T03:04:42.047Z,3.08
2018-02-22T03:05:52.112Z,3.09
2018-02-22T03:37:11.965Z,0.63
2018-02-22T03:38:21.759Z,0.6
2018-02-22T03:39:31.543Z,0.56
2018-02-22T03:40:41.354Z,0.67
2018-02-22T03:41:51.405Z,0.72
2018-02-22T03:43:01.456Z,0.81
2018-02-22T03:44:11.252Z,0.99
2018-02-22T03:45:20.530Z,1.11
2018-02-22T03:46:30.051Z,1.21
2018-02-22T03:47:40.098Z,1.42
2018-02-22T03:48:50.145Z,1.6
2018-02-22T03:50:00.216Z,1.71
2018-02-22T03:51:10.019Z,1.76
2018-02-22T03:52:19.839Z,1.86
2018-02-22T03:53:29.888Z,2.02
2018-02-22T03:54:39.948Z,2.13
2018-02-22T03:55:49.743Z,2.31
2018-02-22T03:56:59.782Z,2.33
2018-02-22T03:58:09.838Z,2.51
2018-02-22T03:59:19.085Z,2.54
2018-02-22T04:00:29.132Z,2.6
2018-02-22T04:01:39.225Z,2.7
2018-02-22T04:02:49.445Z,2.9
2018-02-22T04:03:59.249Z,2.78
2018-02-22T04:05:09.044Z,2.85
2018-02-22T04:06:19.088Z,2.91
2018-02-22T04:07:29.136Z,2.9
2018-02-22T04:08:38.716Z,2.93
2018-02-22T04:09:48.512Z,2.99
2018-02-22T04:10:58.558Z,3.01
2018-02-22T04:12:08.605Z,3.06
2018-02-22T04:13:18.708Z,3.11
2018-02-22T04:14:28.552Z,3.19
2018-02-22T04:15:38.344Z,3.06
2018-02-22T04:16:48.128Z,3.16
2018-02-22T04:17:58.183Z,3.13
2018-02-22T04:19:07.716Z,3.11
2018-02-22T04:20:17.507Z,3.16
2018-02-22T04:21:27.573Z,3.14
2018-02-22T04:22:37.374Z,3.14
2018-02-22T04:23:47.432Z,3.16
2018-02-22T04:24:56.973Z,3.11
2018-02-22T04:26:07.917Z,3.09
2018-02-22T04:27:19.270Z,3.08
2018-02-22T04:28:29.046Z,3.16
2018-02-22T04:29:38.575Z,3.2
2018-02-22T04:30:48.624Z,3.17
2018-02-22T04:31:58.147Z,3.16
2018-02-22T04:33:07.686Z,3.19
2018-02-22T04:34:17.784Z,3.19
2018-02-22T04:35:27.302Z,3.13
2018-02-22T04:36:37.110Z,3.16
2018-02-22T04:37:47.180Z,3.14
2018-02-22T04:38:57.246Z,3.21
2018-02-22T04:40:07.058Z,3.21
2018-02-22T04:41:16.850Z,3.26
2018-02-22T04:42:26.911Z,3.26
2018-02-22T04:43:36.991Z,3.14
2018-02-22T04:44:46.278Z,3.14
2018-02-22T04:45:56.066Z,3.24
2018-02-22T04:47:05.072Z,3.21
2018-02-22T04:48:14.599Z,3.24
2018-02-22T04:49:25.290Z,3.29
2018-02-22T04:50:34.815Z,3.3
2018-02-22T04:51:44.873Z,3.39
2018-02-22T04:52:54.661Z,3.29
2018-02-22T04:54:04.457Z,3.34
2018-02-22T04:55:14.517Z,3.3
2018-02-22T04:56:24.584Z,3.34
2018-02-22T04:57:34.357Z,3.3
2018-02-22T04:58:44.412Z,3.27
2018-02-22T04:59:54.467Z,3.24
2018-02-22T05:01:04.530Z,3.14
2018-02-22T05:02:14.576Z,3.29
2018-02-22T05:03:24.644Z,3.3
2018-02-22T05:04:34.688Z,3.26
2018-02-22T05:05:44.505Z,3.24
2018-02-22T05:06:54.314Z,3.37
2018-02-22T05:08:04.363Z,3.39
2018-02-22T05:09:14.175Z,3.37
2018-02-22T05:10:23.716Z,3.35
2018-02-22T05:11:33.765Z,3.35
2018-02-22T05:12:43.840Z,3.35
2018-02-22T05:13:53.641Z,3.34
2018-02-22T05:15:03.430Z,3.34
2018-02-22T05:16:13.476Z,3.34
2018-02-22T05:17:23.542Z,3.34
2018-02-22T05:18:33.098Z,3.34
2018-02-22T05:19:43.147Z,3.37
2018-02-22T05:20:52.920Z,3.27
2018-02-22T05:22:02.987Z,3.4
2018-02-22T05:23:12.540Z,3.34
2018-02-22T05:24:22.383Z,3.35
2018-02-22T05:25:32.448Z,3.4
2018-02-22T05:26:41.974Z,3.42
2018-02-22T05:27:51.770Z,3.4
2018-02-22T05:29:01.557Z,3.37
2018-02-22T05:30:11.328Z,3.3
2018-02-22T05:31:21.124Z,3.37
2018-02-22T05:32:30.902Z,3.37
2018-02-22T05:33:40.708Z,3.39
2018-02-22T05:34:50.239Z,3.46
2018-02-22T05:36:00.042Z,3.42
2018-02-22T05:37:09.833Z,3.37
2018-02-22T05:38:19.618Z,3.29
2018-02-22T05:39:29.419Z,3.35
2018-02-22T05:40:39.472Z,3.27
2018-02-22T05:41:49.276Z,3.34
2018-02-22T05:42:59.062Z,3.34
2018-02-22T05:44:08.608Z,3.3
2018-02-22T05:45:18.677Z,3.4
2018-02-22T05:46:28.201Z,3.35
2018-02-22T05:47:37.996Z,3.26
2018-02-22T05:48:47.250Z,3.39
2018-02-22T05:49:57.037Z,3.35
2018-02-22T05:51:06.565Z,3.37
2018-02-22T05:52:16.617Z,3.29
2018-02-22T05:53:25.878Z,3.32
2018-02-22T05:54:35.954Z,3.4
2018-02-22T05:55:45.731Z,3.35
2018-02-22T05:56:55.533Z,3.32
2018-02-22T05:58:05.615Z,3.29
2018-02-22T05:59:15.142Z,3.35
2018-02-22T06:00:25.189Z,3.3
2018-02-22T06:01:35.258Z,3.32
2018-02-22T06:02:44.791Z,3.4
2018-02-22T06:03:54.052Z,3.39
2018-02-22T06:05:03.904Z,3.4
2018-02-22T06:06:13.437Z,3.45
2018-02-22T06:07:23.484Z,3.4
2018-02-22T06:08:33.005Z,3.54
2018-02-22T06:09:43.175Z,3.56
2018-02-22T06:10:54.069Z,3.53
2018-02-22T06:12:04.155Z,3.54
2018-02-22T06:13:13.692Z,3.49
2018-02-22T06:14:23.482Z,3.53
2018-02-22T06:15:32.737Z,3.49
2018-02-22T06:16:42.301Z,3.45
2018-02-22T06:17:52.099Z,3.45
2018-02-22T06:19:01.887Z,3.43
2018-02-22T06:20:11.675Z,3.51
2018-02-22T06:21:21.734Z,3.48
2018-02-22T06:22:32.225Z,3.54
2018-02-22T06:23:42.295Z,3.54
2018-02-22T06:24:52.376Z,3.57
2018-02-22T06:26:02.448Z,3.58
2018-02-22T06:27:12.260Z,3.53
2018-02-22T06:28:22.046Z,3.56
2018-02-22T06:29:31.587Z,3.56
2018-02-22T06:30:41.398Z,3.53
2018-02-22T06:31:51.195Z,3.61
2018-02-22T06:33:01.012Z,3.64
2018-02-22T06:34:11.107Z,3.75
2018-02-22T06:35:21.150Z,3.76
2018-02-22T06:36:31.990Z,3.79
2018-02-22T06:37:42.049Z,3.85
2018-02-22T06:38:52.111Z,3.9
2018-02-22T06:40:01.912Z,3.84
2018-02-22T06:41:11.978Z,3.97
2018-02-22T06:42:21.759Z,4.04
2018-02-22T06:43:31.808Z,4.03
2018-02-22T06:44:41.348Z,4.03
2018-02-22T06:45:51.182Z,4.04
2018-02-22T06:47:01.255Z,4.04
2018-02-22T06:48:11.045Z,4.02
2018-02-22T06:49:21.102Z,3.99
2018-02-22T06:50:32.361Z,3.96
2018-02-22T06:51:42.490Z,4
2018-02-22T06:52:52.308Z,4.04
2018-02-22T06:54:02.095Z,4.03
2018-02-22T06:55:11.620Z,4.03
2018-02-22T06:56:21.144Z,3.99
2018-02-22T06:57:30.670Z,4
2018-02-22T06:58:40.206Z,4.07
2018-02-22T06:59:50.017Z,4.08
2018-02-22T07:01:00.103Z,4.07
2018-02-22T07:02:09.899Z,4.1
2018-02-22T07:03:20.449Z,4.08
2018-02-22T07:04:30.519Z,4.15
2018-02-22T07:05:40.331Z,4.2
2018-02-22T07:06:50.131Z,4.22
2018-02-22T07:08:00.211Z,4.24
2018-02-22T07:09:10.046Z,4.26
2018-02-22T07:10:19.829Z,4.29
2018-02-22T07:11:29.624Z,4.28
2018-02-22T07:12:39.148Z,4.2
2018-02-22T07:13:49.202Z,4.21
2018-02-22T07:14:58.715Z,4.26
2018-02-22T07:16:08.243Z,4.29
2018-02-22T07:17:18.083Z,4.35
2018-02-22T07:18:28.155Z,4.32
2018-02-22T07:19:38.224Z,4.4
2018-02-22T07:20:48.020Z,4.39
2018-02-22T07:21:57.810Z,4.38
2018-02-22T07:23:19.488Z,4.53
2018-02-22T07:24:29.615Z,4.5
2018-02-22T07:25:39.697Z,4.57
2018-02-22T07:26:49.803Z,4.64
2018-02-22T07:27:59.948Z,4.61
2018-02-22T07:29:09.726Z,4.68
2018-02-22T07:30:19.528Z,4.76
2018-02-22T07:31:29.371Z,4.85
2018-02-22T07:32:39.416Z,4.88
2018-02-22T07:33:49.205Z,5.02
2018-02-22T07:34:59.255Z,5
2018-02-22T07:36:09.406Z,5.02
2018-02-22T07:37:19.188Z,4.95
2018-02-22T07:38:28.456Z,5.03
2018-02-22T07:39:38.249Z,5.09
2018-02-22T07:40:48.049Z,5.16
2018-02-22T07:41:57.591Z,5.21
2018-02-22T07:43:07.433Z,5.09
2018-02-22T07:44:17.269Z,5.05
2018-02-22T07:45:27.056Z,5.09
2018-02-22T07:46:36.578Z,5.13
2018-02-22T07:47:46.374Z,5.24
2018-02-22T07:48:55.915Z,5.42
2018-02-22T07:50:05.982Z,5.37
2018-02-22T07:51:16.068Z,5.48
2018-02-22T07:52:26.116Z,5.49
2018-02-22T07:53:35.920Z,5.48
2018-02-22T07:54:45.749Z,5.55
2018-02-22T07:55:55.530Z,5.59
2018-02-22T07:57:05.059Z,5.62
2018-02-22T07:58:14.859Z,5.67
2018-02-22T07:59:24.930Z,5.66
2018-02-22T08:00:34.996Z,5.8
2018-02-22T08:01:44.510Z,6.02
2018-02-22T08:02:54.302Z,6.15
2018-02-22T08:04:03.583Z,6.37
2018-02-22T08:05:13.655Z,6.36
2018-02-22T08:06:23.712Z,6.46
2018-02-22T08:07:33.506Z,6.49
2018-02-22T08:08:43.566Z,6.39
2018-02-22T08:09:53.118Z,6.44
2018-02-22T08:11:02.660Z,6.4
2018-02-22T08:12:12.727Z,6.36
2018-02-22T08:13:22.792Z,6.28
2018-02-22T08:14:32.602Z,6.17
2018-02-22T08:15:42.397Z,6.13
2018-02-22T08:16:52.190Z,6.15
2018-02-22T08:18:02.301Z,6.13
2018-02-22T08:19:12.100Z,6.2
2018-02-22T08:20:22.158Z,6.39
2018-02-22T08:21:32.210Z,6.37
2018-02-22T08:22:41.495Z,6.54
2018-02-22T08:23:51.278Z,6.58
2018-02-22T08:25:00.824Z,6.68
2018-02-22T08:26:10.622Z,6.76
2018-02-22T08:27:20.681Z,6.82
2018-02-22T08:28:30.740Z,6.83
2018-02-22T08:29:40.548Z,6.95
2018-02-22T08:30:50.367Z,6.98
2018-02-22T08:32:00.435Z,7.09
2018-02-22T08:33:09.987Z,7.15
2018-02-22T08:34:19.792Z,7.16
2018-02-22T08:35:29.318Z,7.19
2018-02-22T08:36:39.123Z,7.19
2018-02-22T08:37:49.201Z,7.16
2018-02-22T08:38:58.843Z,7.16
2018-02-22T08:40:09.085Z,7.22
2018-02-22T08:41:18.874Z,7.29
2018-02-22T08:42:28.658Z,7.36
2018-02-22T08:43:38.215Z,7.41
2018-02-22T08:44:48.069Z,7.36
2018-02-22T08:45:57.330Z,7.4
2018-02-22T08:47:06.863Z,7.54
2018-02-22T08:48:16.403Z,7.64
2018-02-22T08:49:26.213Z,7.85
2018-02-22T08:50:36.021Z,7.86
2018-02-22T08:51:46.069Z,7.96
2018-02-22T08:52:55.873Z,8.16
2018-02-22T08:54:05.925Z,8.24
2018-02-22T08:55:15.461Z,8.43
2018-02-22T08:56:24.997Z,8.47
2018-02-22T08:57:35.076Z,8.58
2018-02-22T08:58:44.866Z,8.77
2018-02-22T08:59:54.924Z,8.72
2018-02-22T09:01:04.985Z,8.49
2018-02-22T09:02:15.748Z,8.49
2018-02-22T09:03:25.540Z,8.34
2018-02-22T09:04:35.364Z,8.31
2018-02-22T09:05:45.163Z,8.13
2018-02-22T09:06:55.226Z,8.19
2018-02-22T09:08:05.302Z,8.19
2018-02-22T09:09:15.103Z,8.14
2018-02-22T09:10:25.166Z,8.24
2018-02-22T09:11:34.956Z,8.17
2018-02-22T09:12:45.072Z,8.28
2018-02-22T09:13:54.876Z,8.39
2018-02-22T09:15:04.949Z,8.61
2018-02-22T09:16:14.740Z,8.68
2018-02-22T09:17:24.550Z,8.8
2018-02-22T09:18:34.613Z,8.8
2018-02-22T09:19:44.408Z,8.74
2018-02-22T09:20:54.215Z,8.82
2018-02-22T09:22:03.750Z,8.77
2018-02-22T09:23:13.809Z,8.68
2018-02-22T09:24:23.888Z,8.57
2018-02-22T09:25:33.952Z,8.47
2018-02-22T09:26:44.003Z,8.42
2018-02-22T09:27:54.065Z,8.5
2018-02-22T09:29:03.876Z,8.46
2018-02-22T09:30:13.999Z,8.36
2018-02-22T09:31:23.804Z,8.49
2018-02-22T09:32:33.592Z,8.43
2018-02-22T09:33:43.638Z,8.19
2018-02-22T09:34:53.435Z,8.19
2018-02-22T09:36:03.225Z,8.24
2018-02-22T09:37:13.291Z,8.1
2018-02-22T09:38:23.395Z,8.04
2018-02-22T09:39:32.669Z,8.07
2018-02-22T09:40:42.204Z,8.24
2018-02-22T09:41:52.276Z,8.14
2018-02-22T09:43:03.519Z,8.35
2018-02-22T09:44:13.575Z,8.47
2018-02-22T09:45:23.359Z,8.44
2018-02-22T09:46:33.250Z,8.44
2018-02-22T09:47:42.828Z,8.6
2018-02-22T09:48:52.883Z,8.62
2018-02-22T09:50:02.682Z,8.76
2018-02-22T09:51:12.482Z,8.97
2018-02-22T09:52:22.262Z,9.11
2018-02-22T09:53:31.792Z,9.32
2018-02-22T09:54:41.580Z,9.41
2018-02-22T09:55:51.633Z,9.52
2018-02-22T09:57:01.694Z,9.59
2018-02-22T09:58:11.525Z,9.66
2018-02-22T09:59:21.588Z,9.71
2018-02-22T10:00:31.384Z,9.81
2018-02-22T10:01:41.466Z,9.84
2018-02-22T10:02:51.528Z,9.88
2018-02-22T10:04:01.586Z,9.81
2018-02-22T10:05:11.387Z,9.89
2018-02-22T10:06:21.200Z,9.96
2018-02-22T10:07:31.020Z,9.93
2018-02-22T10:08:40.828Z,9.98
2018-02-22T10:09:50.901Z,9.99
2018-02-22T10:11:00.189Z,9.98
2018-02-22T10:12:10.014Z,9.95
2018-02-22T10:13:19.560Z,9.96
2018-02-22T10:14:29.085Z,10.02
2018-02-22T10:15:39.151Z,10.11
2018-02-22T10:16:49.269Z,10.11
2018-02-22T10:17:59.629Z,10.13
2018-02-22T10:19:09.448Z,10.08
2018-02-22T10:20:19.504Z,9.95
2018-02-22T10:21:29.029Z,9.77
2018-02-22T10:22:39.084Z,9.55
2018-02-22T10:23:48.876Z,9.38
2018-02-22T10:24:58.962Z,9.14
2018-02-22T10:26:10.153Z,8.94
2018-02-22T10:27:20.124Z,8.8
2018-02-22T10:28:29.955Z,8.69
2018-02-22T10:29:40.021Z,8.61
2018-02-22T10:30:50.084Z,8.62
2018-02-22T10:32:00.156Z,8.44
2018-02-22T10:33:09.984Z,8.52
2018-02-22T10:34:19.506Z,8.46
2018-02-22T10:35:29.289Z,8.44
2018-02-22T10:36:38.820Z,8.5
2018-02-22T10:37:48.603Z,8.46
2018-02-22T10:38:59.580Z,8.54
2018-02-22T10:40:10.325Z,8.6
2018-02-22T10:41:21.710Z,8.69
2018-02-22T10:42:31.786Z,8.68
2018-02-22T10:43:41.834Z,8.72
2018-02-22T10:44:51.982Z,8.72
2018-02-22T10:46:02.056Z,8.62
2018-02-22T10:47:12.110Z,8.6
2018-02-22T10:48:22.192Z,8.52
2018-02-22T10:49:32.239Z,8.6
2018-02-22T10:50:42.344Z,8.6
2018-02-22T10:51:52.412Z,8.52
2018-02-22T10:53:02.468Z,8.5
2018-02-22T10:54:12.287Z,8.43
2018-02-22T10:55:21.821Z,8.52
2018-02-22T10:56:31.443Z,8.43
2018-02-22T10:57:41.264Z,8.4
2018-02-22T10:58:51.092Z,8.6
2018-02-22T11:00:01.166Z,8.6
2018-02-22T11:01:11.281Z,8.6
2018-02-22T11:02:21.581Z,8.68
2018-02-22T11:03:31.669Z,8.69
2018-02-22T11:04:41.894Z,8.65
2018-02-22T11:05:51.486Z,8.6
2018-02-22T11:07:01.558Z,8.6
2018-02-22T11:08:11.429Z,8.61
2018-02-22T11:09:21.231Z,8.57
2018-02-22T11:10:31.433Z,8.61
2018-02-22T11:11:41.246Z,8.72
2018-02-22T11:12:51.052Z,8.8
2018-02-22T11:14:00.898Z,8.82
2018-02-22T11:15:10.717Z,8.79
2018-02-22T11:16:20.256Z,8.9
2018-02-22T11:17:30.055Z,9.01
2018-02-22T11:18:40.134Z,9.17
2018-02-22T11:19:49.986Z,9.19
2018-02-22T11:20:59.798Z,9.19
2018-02-22T11:22:09.912Z,9.26
2018-02-22T11:23:19.711Z,9.29
2018-02-22T11:24:28.997Z,9.39
2018-02-22T11:25:38.540Z,9.38
2018-02-22T11:26:48.660Z,9.41
2018-02-22T11:27:58.740Z,9.42
2018-02-22T11:29:08.970Z,9.27
2018-02-22T11:30:19.041Z,9.32
2018-02-22T11:31:28.864Z,9.3
2018-02-22T11:32:38.686Z,9.23
2018-02-22T11:33:48.730Z,9.29
2018-02-22T11:34:58.268Z,9.38
2018-02-22T11:36:08.378Z,9.44
2018-02-22T11:37:18.209Z,9.44
2018-02-22T11:38:28.336Z,9.53
2018-02-22T11:39:38.464Z,9.56
2018-02-22T11:40:48.027Z,9.57
2018-02-22T11:41:57.850Z,9.64
2018-02-22T11:43:07.677Z,9.62
2018-02-22T11:44:17.225Z,9.56
2018-02-22T11:45:27.316Z,9.7
2018-02-22T11:46:37.422Z,9.77
2018-02-22T11:47:47.252Z,9.71
2018-02-22T11:48:57.057Z,9.82
2018-02-22T11:50:07.591Z,9.84
2018-02-22T11:51:17.444Z,9.74
2018-02-22T11:52:27.261Z,9.78
2018-02-22T11:53:37.344Z,9.75
2018-02-22T11:54:47.167Z,9.82
2018-02-22T11:55:57.253Z,9.85
2018-02-22T11:57:06.534Z,9.84
2018-02-22T11:58:17.438Z,10.03
2018-02-22T11:59:27.333Z,10.15
2018-02-22T12:00:37.392Z,10.25
2018-02-22T12:01:46.947Z,10.23
2018-02-22T12:02:56.743Z,10.28
2018-02-22T12:04:06.545Z,10.36
2018-02-22T12:05:16.395Z,10.57
2018-02-22T12:06:26.190Z,10.58
2018-02-22T12:07:36.275Z,10.65
2018-02-22T12:08:46.348Z,10.84
2018-02-22T12:09:55.653Z,10.79
2018-02-22T12:11:05.708Z,10.91
2018-02-22T12:12:15.776Z,10.95
2018-02-22T12:13:25.880Z,11
2018-02-22T12:14:35.692Z,11.05
2018-02-22T12:15:45.782Z,11.02
2018-02-22T12:16:55.842Z,11.08
2018-02-22T12:18:05.917Z,11.09
2018-02-22T12:19:15.714Z,10.97
2018-02-22T12:20:25.788Z,10.94
2018-02-22T12:21:35.594Z,10.85
2018-02-22T12:22:45.658Z,11.02
2018-02-22T12:23:55.711Z,10.91
2018-02-22T12:25:05.607Z,10.88
2018-02-22T12:26:15.786Z,10.83
2018-02-22T12:27:25.889Z,10.84
2018-02-22T12:28:35.962Z,10.9
2018-02-22T12:29:46.603Z,10.79
2018-02-22T12:30:56.435Z,10.83
2018-02-22T12:32:06.519Z,10.8
2018-02-22T12:33:17.180Z,10.67
2018-02-22T12:34:26.979Z,10.61
2018-02-22T12:35:37.086Z,10.7
2018-02-22T12:36:46.871Z,10.51
2018-02-22T12:37:56.673Z,10.42
2018-02-22T12:39:06.798Z,10.21
2018-02-22T12:43:03.245Z,10.11
2018-02-22T12:44:12.832Z,10.21
2018-02-22T12:45:22.889Z,10.25
2018-02-22T12:46:32.972Z,10.28
2018-02-22T12:47:43.080Z,10.18
2018-02-22T12:48:53.139Z,10
2018-02-22T12:50:02.666Z,10
2018-02-22T12:51:12.778Z,9.81
2018-02-22T12:52:22.329Z,9.63
2018-02-22T12:53:31.882Z,9.42
2018-02-22T12:54:41.936Z,9.26
2018-02-22T12:55:51.721Z,9.27
2018-02-22T12:57:01.523Z,9.27
2018-02-22T12:58:11.049Z,9.23
2018-02-22T12:59:21.199Z,9.26
2018-02-22T13:00:31.093Z,9.23
2018-02-22T13:01:40.652Z,9.17
2018-02-22T13:02:50.517Z,9.24
2018-02-22T13:04:01.809Z,9.11
2018-02-22T13:05:11.658Z,9.09
2018-02-22T13:06:21.789Z,8.92
2018-02-22T13:07:31.573Z,8.92
2018-02-22T13:08:41.382Z,8.97
2018-02-22T13:09:51.807Z,8.95
2018-02-22T13:11:01.873Z,9.12
2018-02-22T13:12:11.972Z,9.12
2018-02-22T13:13:22.049Z,9.05
2018-02-22T13:14:32.119Z,9.11
2018-02-22T13:15:42.192Z,9.16
2018-02-22T13:16:52.299Z,9.14
2018-02-22T13:18:02.443Z,9.08
2018-02-22T13:19:12.534Z,9.03
2018-02-22T13:20:22.371Z,8.97
2018-02-22T13:21:32.452Z,8.9
2018-02-22T13:22:42.160Z,9.01
2018-02-22T13:23:52.305Z,9.09
2018-02-22T13:25:01.867Z,9.11
2018-02-22T13:26:11.686Z,9.12
2018-02-22T13:27:21.786Z,9.11
2018-02-22T13:28:31.887Z,9.08
2018-02-22T13:29:41.727Z,9.01
2018-02-22T13:30:51.559Z,8.92
2018-02-22T13:32:01.650Z,8.89
2018-02-22T13:33:11.201Z,8.8
2018-02-22T13:34:21.317Z,8.79
2018-02-22T13:35:32.339Z,8.67
2018-02-22T13:36:43.669Z,8.82
2018-02-22T13:37:53.471Z,8.83
2018-02-22T13:39:03.031Z,8.76
2018-02-22T13:40:12.853Z,8.77
2018-02-22T13:41:22.925Z,8.64
2018-02-22T13:42:32.477Z,8.67
2018-02-22T13:43:42.572Z,8.62
2018-02-22T13:44:52.380Z,8.49
2018-02-22T13:46:02.199Z,8.44
2018-02-22T13:47:14.600Z,8.34
2018-02-22T13:48:24.662Z,8.24
2018-02-22T13:49:34.488Z,8.16
2018-02-22T13:50:44.588Z,8.22
2018-02-22T13:51:54.661Z,8.13
2018-02-22T13:53:04.244Z,8.07
2018-02-22T13:54:14.286Z,8.04
2018-02-22T13:55:24.376Z,7.99
2018-02-22T13:56:34.181Z,7.95
2018-02-22T13:57:43.764Z,7.93
2018-02-22T13:58:53.903Z,7.93
2018-02-22T14:00:03.453Z,7.88
2018-02-22T14:01:13.535Z,7.88
2018-02-22T14:02:23.339Z,7.93
2018-02-22T14:03:33.421Z,7.86
2018-02-22T14:04:43.613Z,7.83
2018-02-22T14:05:53.410Z,7.86
2018-02-22T14:07:03.488Z,7.75
2018-02-22T14:08:13.325Z,7.78
2018-02-22T14:09:23.142Z,7.7
2018-02-22T14:10:33.056Z,7.67
2018-02-22T14:11:44.177Z,7.56
2018-02-22T14:12:54.255Z,7.54
2018-02-22T14:14:04.072Z,7.48
2018-02-22T14:15:13.872Z,7.51
2018-02-22T14:16:23.949Z,7.36
2018-02-22T14:17:34.061Z,7.45
2018-02-22T14:18:43.870Z,7.44
2018-02-22T14:19:53.681Z,7.45
2018-02-22T14:21:03.228Z,7.4
2018-02-22T14:22:13.112Z,7.45
2018-02-22T14:23:23.189Z,7.37
2018-02-22T14:24:33.234Z,7.39
2018-02-22T14:25:43.027Z,7.29
2018-02-22T14:26:52.861Z,7.37
2018-02-22T14:28:02.994Z,7.48
2018-02-22T14:29:12.825Z,7.47
2018-02-22T14:30:22.413Z,7.51
2018-02-22T14:31:32.473Z,7.45
2018-02-22T14:32:42.564Z,7.48
2018-02-22T14:33:52.171Z,7.41
2018-02-22T14:35:01.984Z,7.41
2018-02-22T14:36:11.801Z,7.36
2018-02-22T14:37:21.864Z,7.31
2018-02-22T14:38:31.684Z,7.34
2018-02-22T14:39:41.804Z,7.4
2018-02-22T14:40:51.867Z,7.23
2018-02-22T14:42:01.987Z,7.23
2018-02-22T14:43:12.056Z,7.27
2018-02-22T14:44:21.862Z,7.16
2018-02-22T14:45:31.977Z,7.05
2018-02-22T14:46:41.871Z,7.03
2018-02-22T14:47:51.958Z,7.01
2018-02-22T14:49:01.772Z,6.91
2018-02-22T14:50:11.594Z,6.78
2018-02-22T14:51:20.925Z,6.8
2018-02-22T14:52:30.461Z,6.78
2018-02-22T14:53:40.263Z,6.65
2018-02-22T14:54:50.097Z,6.83
2018-02-22T14:56:00.170Z,6.73
2018-02-22T14:57:09.772Z,6.72
2018-02-22T14:58:19.327Z,6.72
2018-02-22T14:59:29.135Z,6.7
2018-02-22T15:00:40.585Z,6.73
2018-02-22T15:01:50.654Z,6.65
2018-02-22T15:03:00.731Z,6.57
2018-02-22T15:04:10.810Z,6.55
2018-02-22T15:05:20.626Z,6.61
2018-02-22T15:06:30.720Z,6.54
2018-02-22T15:07:40.799Z,6.55
2018-02-22T15:08:50.979Z,6.58
2018-02-22T15:10:01.063Z,6.57
2018-02-22T15:11:11.386Z,6.67
2018-02-22T15:12:21.189Z,6.55
2018-02-22T15:13:31.013Z,6.58
2018-02-22T15:14:40.828Z,6.58
2018-02-22T15:15:50.380Z,6.52
2018-02-22T15:17:00.458Z,6.44
2018-02-22T15:18:10.003Z,6.37
2018-02-22T15:19:20.076Z,6.39
2018-02-22T15:20:30.155Z,6.29
2018-02-22T15:21:40.246Z,6.2
2018-02-22T15:22:50.064Z,6.25
2018-02-22T15:23:59.859Z,6.1
2018-02-22T15:25:09.680Z,6.13
2018-02-22T15:26:19.831Z,6.03
2018-02-22T15:27:29.920Z,5.92
2018-02-22T15:28:39.991Z,5.82
2018-02-22T15:29:50.064Z,5.8
2018-02-22T15:30:59.866Z,5.77
2018-02-22T15:32:09.745Z,5.8
2018-02-22T15:33:19.036Z,5.72
2018-02-22T15:34:29.124Z,5.75
2018-02-22T15:35:39.217Z,5.64
2018-02-22T15:36:49.042Z,5.64
2018-02-22T15:37:58.886Z,5.72
2018-02-22T15:39:08.995Z,5.72
2018-02-22T15:40:19.214Z,5.7
2018-02-22T15:41:28.748Z,5.7
2018-02-22T15:42:38.833Z,5.62
2018-02-22T15:43:48.716Z,5.69
2018-02-22T15:44:58.543Z,5.59
2018-02-22T15:46:08.669Z,5.6
2018-02-22T15:47:18.733Z,5.57
2018-02-22T15:48:28.260Z,5.54
2018-02-22T15:49:38.141Z,5.62
2018-02-22T15:50:48.243Z,5.59
2018-02-22T15:51:58.335Z,5.59
2018-02-22T15:53:08.142Z,5.49
2018-02-22T15:54:18.204Z,5.45
2018-02-22T15:55:28.279Z,5.33
2018-02-22T15:56:38.370Z,5.37
2018-02-22T15:57:48.442Z,5.34
2018-02-22T15:58:58.531Z,5.41
2018-02-22T16:00:08.623Z,5.31
2018-02-22T16:01:18.706Z,5.3
2018-02-22T16:02:28.507Z,5.33
2018-02-22T16:03:38.598Z,5.28
2018-02-22T16:04:48.154Z,5.23
2018-02-22T16:05:58.233Z,5.21